KDRA

Desert Rock Airport

Mercury, Nevada, USA
METAR KDRA 200655Z AUTO 04004KT 10SM OVC110 01/M16 A2994 RMK AO2 SLP134 T00061156 $
Observed Flight Rules
Feb-20 @ 06:55 UTC (35 minutes ago) Visual Flight Rules
Wind Visibility Clouds
40° at 4 knots 10 miles
  • Overcast at 11,000' AGL
Temperatures Readings
Current 1°C / 34°F
Dewpoint -16°C / 3°F
Humidity 27%
Altimeter 29.94" Hg
Pressure 1013.4 hPa
Elevation 1006
METAR KDRA 200655Z AUTO 04004KT 10SM OVC110 01/M16 A2994 RMK AO2 SLP134 T00061156 $
Observed Flight Rules
Feb-20 @ 06:55 UTC
(35 minutes ago)
VFR
Wind Visibility
40° at 4 knots 10 miles
Clouds
  • Overcast at 11,000' AGL
Temperature Dewpoint
1°C / 34°F -16°C / 3°F
Humidity Altimeter Pressure
27% 29.94" Hg 1013.4 hPa